createdAt,value
2022-10-30T00:00:39.701Z,49.95
2022-10-30T00:01:39.727Z,48.66
2022-10-30T00:02:39.711Z,50.76
2022-10-30T00:03:39.672Z,38.99
2022-10-30T00:04:39.673Z,45.76
2022-10-30T00:05:39.653Z,39.48
2022-10-30T00:06:39.645Z,48.98
2022-10-30T00:07:39.648Z,39.48
2022-10-30T00:08:39.681Z,37.71
2022-10-30T00:09:39.627Z,40.28
2022-10-30T00:10:39.620Z,40.93
2022-10-30T00:11:39.600Z,48.98
2022-10-30T00:12:40.610Z,46.57
2022-10-30T00:13:39.606Z,45.76
2022-10-30T00:14:39.581Z,39.32
2022-10-30T00:15:39.585Z,39.32
2022-10-30T00:16:39.571Z,41.09
2022-10-30T00:17:39.557Z,42.70
2022-10-30T00:18:39.562Z,40.77
2022-10-30T00:19:39.548Z,44.47
2022-10-30T00:20:40.222Z,44.47
2022-10-30T00:21:39.534Z,41.57
2022-10-30T00:22:39.515Z,47.21
2022-10-30T00:23:39.513Z,41.73
2022-10-30T00:24:39.539Z,41.57
2022-10-30T00:25:39.502Z,59.14
2022-10-30T00:26:39.502Z,50.27
2022-10-30T00:27:39.475Z,57.20
2022-10-30T00:30:39.580Z,45.60
2022-10-30T00:31:39.560Z,48.66
2022-10-30T00:32:39.549Z,46.89
2022-10-30T00:33:39.546Z,47.70
2022-10-30T00:34:40.629Z,47.86
2022-10-30T00:35:40.698Z,48.66
2022-10-30T00:36:40.610Z,45.92
2022-10-30T00:37:40.617Z,44.15
2022-10-30T00:38:40.607Z,45.28
2022-10-30T00:39:40.601Z,46.08
2022-10-30T00:40:40.580Z,42.86
2022-10-30T00:41:40.572Z,47.21
2022-10-30T00:42:40.575Z,39.32
2022-10-30T00:43:40.580Z,40.28
2022-10-30T00:44:40.606Z,40.77
2022-10-30T00:45:40.553Z,41.57
2022-10-30T00:46:40.542Z,38.67
2022-10-30T00:47:40.533Z,44.15
2022-10-30T00:48:41.437Z,46.89
2022-10-30T00:49:40.507Z,49.31
2022-10-30T00:50:40.499Z,40.93
2022-10-30T00:51:42.447Z,39.32
2022-10-30T00:52:40.501Z,36.74
2022-10-30T00:53:40.480Z,36.09
2022-10-30T00:54:40.472Z,36.25
2022-10-30T00:55:40.457Z,42.06
2022-10-30T00:56:40.456Z,39.16
2022-10-30T00:57:40.447Z,41.73
2022-10-30T00:58:40.447Z,43.18
2022-10-30T00:59:40.446Z,45.92
2022-10-30T01:00:40.483Z,38.83
2022-10-30T01:01:40.613Z,41.73
2022-10-30T01:02:40.461Z,42.38
2022-10-30T01:03:40.404Z,49.63
2022-10-30T01:04:40.397Z,45.60
2022-10-30T01:05:40.410Z,40.93
2022-10-30T01:06:40.375Z,40.12
2022-10-30T01:07:40.369Z,37.22
2022-10-30T01:08:40.441Z,40.28
2022-10-30T01:09:40.355Z,49.31
2022-10-30T01:10:40.377Z,45.44
2022-10-30T01:11:40.394Z,42.38
2022-10-30T01:12:40.336Z,45.60
2022-10-30T01:13:40.320Z,37.38
2022-10-30T01:14:40.314Z,36.90
2022-10-30T01:15:40.317Z,42.70
2022-10-30T01:16:40.301Z,42.22
2022-10-30T01:17:40.304Z,43.34
2022-10-30T01:18:40.286Z,52.69
2022-10-30T01:19:40.275Z,48.18
2022-10-30T01:20:40.277Z,43.99
2022-10-30T01:21:40.257Z,43.51
2022-10-30T01:22:40.262Z,42.06
2022-10-30T01:23:40.276Z,41.41
2022-10-30T01:24:40.250Z,46.25
2022-10-30T01:25:40.230Z,40.61
2022-10-30T01:26:40.225Z,38.03
2022-10-30T01:27:40.217Z,42.70
2022-10-30T01:28:40.198Z,37.38
2022-10-30T01:29:40.197Z,37.06
2022-10-30T01:30:40.204Z,45.12
2022-10-30T01:31:40.951Z,40.44
2022-10-30T01:32:40.185Z,45.76
2022-10-30T01:33:40.168Z,38.19
2022-10-30T01:34:40.156Z,37.38
2022-10-30T01:35:40.148Z,43.83
2022-10-30T01:36:40.145Z,44.79
2022-10-30T01:37:40.136Z,42.54
2022-10-30T01:38:40.126Z,38.67
2022-10-30T01:39:40.115Z,39.16
2022-10-30T01:40:40.126Z,46.57
2022-10-30T01:41:40.102Z,49.47
2022-10-30T01:42:40.088Z,49.63
2022-10-30T01:43:40.079Z,48.50
2022-10-30T01:44:40.080Z,50.27
2022-10-30T01:45:40.074Z,49.79
2022-10-30T01:46:40.057Z,48.82
2022-10-30T01:47:40.056Z,49.63
2022-10-30T01:48:40.048Z,49.47
2022-10-30T01:49:40.042Z,50.43
2022-10-30T01:50:40.024Z,51.24
2022-10-30T01:51:40.033Z,49.15
2022-10-30T01:52:40.126Z,49.15
2022-10-30T01:53:40.562Z,51.24
2022-10-30T01:54:40.020Z,50.27
2022-10-30T01:55:39.981Z,51.24
2022-10-30T01:56:39.982Z,53.66
2022-10-30T01:57:39.976Z,51.40
2022-10-30T01:58:39.970Z,48.34
2022-10-30T01:59:39.956Z,46.89
2022-10-30T02:00:39.961Z,42.38
2022-10-30T02:01:40.137Z,47.21
2022-10-30T02:02:40.018Z,41.73
2022-10-30T02:03:39.932Z,42.54
2022-10-30T02:04:39.914Z,47.86
2022-10-30T02:05:39.907Z,38.83
2022-10-30T02:06:39.896Z,42.54
2022-10-30T02:07:39.896Z,39.16
2022-10-30T02:08:39.876Z,40.44
2022-10-30T02:09:39.873Z,43.67
2022-10-30T02:10:39.859Z,37.22
2022-10-30T02:11:39.874Z,37.22
2022-10-30T02:12:39.852Z,38.67
2022-10-30T02:13:39.834Z,39.32
2022-10-30T02:14:39.835Z,37.71
2022-10-30T02:15:39.815Z,44.79
2022-10-30T02:16:39.821Z,36.58
2022-10-30T02:17:39.806Z,36.42
2022-10-30T02:18:39.847Z,40.12
2022-10-30T02:19:39.797Z,44.15
2022-10-30T02:20:39.774Z,40.77
2022-10-30T02:21:39.774Z,37.71
2022-10-30T02:22:39.862Z,37.71
2022-10-30T02:23:39.762Z,40.61
2022-10-30T02:24:39.753Z,43.02
2022-10-30T02:25:39.739Z,39.96
2022-10-30T02:26:39.733Z,36.09
2022-10-30T02:27:39.736Z,36.74
2022-10-30T02:28:39.718Z,36.58
2022-10-30T02:29:39.721Z,40.44
2022-10-30T02:30:39.700Z,43.02
2022-10-30T02:31:39.693Z,37.22
2022-10-30T02:32:39.684Z,44.15
2022-10-30T02:33:39.692Z,38.19
2022-10-30T02:34:39.692Z,37.54
2022-10-30T02:35:39.656Z,38.03
2022-10-30T02:36:39.651Z,38.03
2022-10-30T02:37:39.654Z,39.64
2022-10-30T02:38:39.686Z,37.54
2022-10-30T02:39:40.577Z,37.22
2022-10-30T02:40:39.645Z,41.57
2022-10-30T02:41:39.623Z,38.51
2022-10-30T02:42:39.603Z,40.77
2022-10-30T02:43:39.606Z,43.02
2022-10-30T02:44:39.584Z,43.99
2022-10-30T02:45:39.576Z,41.41
2022-10-30T02:46:39.565Z,39.80
2022-10-30T02:47:39.559Z,44.63
2022-10-30T02:48:39.559Z,38.19
2022-10-30T02:49:39.542Z,36.90
2022-10-30T02:50:39.541Z,42.06
2022-10-30T02:51:39.527Z,37.38
2022-10-30T02:52:39.511Z,39.32
2022-10-30T02:53:39.524Z,36.58
2022-10-30T02:54:39.517Z,40.12
2022-10-30T02:55:39.494Z,43.83
2022-10-30T02:56:39.484Z,42.06
2022-10-30T02:57:39.482Z,42.54
2022-10-30T02:58:39.489Z,41.57
2022-10-30T02:59:39.474Z,45.12
2022-10-30T03:00:39.454Z,37.87
2022-10-30T03:01:39.552Z,38.67
2022-10-30T03:02:39.494Z,37.38
2022-10-30T03:03:39.445Z,42.70
2022-10-30T03:04:39.422Z,40.77
2022-10-30T03:05:39.418Z,41.89
2022-10-30T03:06:39.433Z,37.54
2022-10-30T03:07:39.427Z,38.99
2022-10-30T03:08:39.385Z,39.16
2022-10-30T03:09:39.382Z,46.89
2022-10-30T03:10:39.383Z,39.96
2022-10-30T03:11:39.381Z,37.38
2022-10-30T03:12:39.372Z,37.06
2022-10-30T03:13:39.354Z,38.35
2022-10-30T03:14:39.345Z,38.19
2022-10-30T03:15:39.343Z,44.47
2022-10-30T03:16:39.324Z,39.80
2022-10-30T03:18:39.313Z,39.64
2022-10-30T03:19:39.297Z,44.15
2022-10-30T03:20:39.291Z,48.02
2022-10-30T03:21:39.288Z,51.24
2022-10-30T03:22:40.065Z,56.40
2022-10-30T03:23:39.276Z,44.47
2022-10-30T03:24:39.274Z,48.66
2022-10-30T03:25:39.257Z,39.48
2022-10-30T03:26:39.247Z,37.54
2022-10-30T03:27:39.262Z,37.38
2022-10-30T03:28:39.243Z,40.28
2022-10-30T03:29:39.231Z,38.83
2022-10-30T03:30:42.019Z,37.71
2022-10-30T03:31:39.222Z,38.67
2022-10-30T03:32:39.206Z,38.67
2022-10-30T03:33:39.196Z,36.90
2022-10-30T03:34:39.181Z,36.90
2022-10-30T03:35:39.175Z,41.73
2022-10-30T03:36:39.197Z,40.12
2022-10-30T03:37:39.156Z,39.32
2022-10-30T03:38:39.152Z,38.19
2022-10-30T03:39:39.139Z,37.71
2022-10-30T03:40:39.129Z,39.48
2022-10-30T03:41:39.136Z,41.89
2022-10-30T03:42:40.115Z,39.64
2022-10-30T03:43:39.114Z,37.71
2022-10-30T03:44:39.104Z,38.19
2022-10-30T03:45:39.101Z,37.71
2022-10-30T03:46:39.082Z,38.67
2022-10-30T03:47:39.080Z,37.22
2022-10-30T03:48:39.079Z,36.90
2022-10-30T03:49:39.064Z,37.54
2022-10-30T03:50:39.051Z,39.16
2022-10-30T03:51:39.078Z,37.87
2022-10-30T03:52:39.034Z,41.89
2022-10-30T03:53:39.030Z,38.67
2022-10-30T03:54:39.031Z,38.19
2022-10-30T03:55:39.005Z,40.44
2022-10-30T03:56:39.020Z,40.93
2022-10-30T03:57:39.005Z,40.61
2022-10-30T03:58:38.994Z,40.12
2022-10-30T03:59:38.997Z,38.51
2022-10-30T04:00:38.979Z,38.19
2022-10-30T04:01:39.126Z,38.83
2022-10-30T04:02:38.967Z,38.19
2022-10-30T04:03:38.946Z,45.76
2022-10-30T04:04:38.947Z,44.47
2022-10-30T04:05:38.961Z,40.12
2022-10-30T04:06:38.931Z,44.15
2022-10-30T04:07:39.018Z,41.09
2022-10-30T04:08:38.935Z,41.41
2022-10-30T04:09:38.929Z,38.99
2022-10-30T04:10:38.956Z,38.35
2022-10-30T04:11:38.885Z,43.99
2022-10-30T04:12:38.879Z,38.51
2022-10-30T04:13:39.492Z,40.61
2022-10-30T04:14:39.611Z,49.47
2022-10-30T04:15:38.865Z,40.77
2022-10-30T04:16:39.845Z,40.44
2022-10-30T04:17:38.849Z,39.48
2022-10-30T04:18:38.827Z,47.21
2022-10-30T04:19:38.836Z,48.98
2022-10-30T04:20:38.819Z,48.82
2022-10-30T04:21:38.809Z,41.57
2022-10-30T04:22:38.798Z,38.99
2022-10-30T04:23:38.788Z,40.77
2022-10-30T04:24:38.781Z,41.25
2022-10-30T04:25:38.782Z,43.34
2022-10-30T04:26:38.774Z,43.02
2022-10-30T04:27:38.760Z,42.22
2022-10-30T04:28:38.750Z,42.06
2022-10-30T04:29:38.738Z,42.22
2022-10-30T04:30:38.745Z,43.83
2022-10-30T04:31:38.737Z,43.34
2022-10-30T04:32:38.716Z,41.41
2022-10-30T04:33:38.711Z,40.93
2022-10-30T04:34:38.704Z,44.15
2022-10-30T04:35:38.689Z,45.76
2022-10-30T04:36:38.695Z,44.47
2022-10-30T04:37:38.671Z,47.70
2022-10-30T04:38:38.665Z,49.95
2022-10-30T04:39:42.349Z,47.70
2022-10-30T04:40:40.652Z,52.69
2022-10-30T04:41:38.692Z,44.96
2022-10-30T04:42:40.499Z,46.25
2022-10-30T04:43:38.627Z,45.12
2022-10-30T04:44:38.630Z,41.41
2022-10-30T04:45:38.616Z,45.12
2022-10-30T04:46:39.021Z,46.08
2022-10-30T04:47:38.592Z,46.89
2022-10-30T04:48:38.597Z,37.06
2022-10-30T04:49:38.577Z,36.90
2022-10-30T04:50:38.574Z,38.51
2022-10-30T04:51:38.566Z,40.77
2022-10-30T04:52:38.565Z,42.54
2022-10-30T04:53:38.550Z,41.57
2022-10-30T04:54:38.536Z,39.96
2022-10-30T04:55:38.543Z,39.16
2022-10-30T04:56:38.527Z,39.32
2022-10-30T04:57:38.527Z,51.08
2022-10-30T04:58:39.081Z,42.54
2022-10-30T04:59:38.501Z,38.03
2022-10-30T05:00:38.493Z,40.61
2022-10-30T05:01:38.619Z,40.12
2022-10-30T05:02:39.226Z,40.12
2022-10-30T05:03:38.467Z,42.38
2022-10-30T05:04:38.456Z,39.48
2022-10-30T05:05:38.484Z,42.38
2022-10-30T05:06:38.451Z,41.73
2022-10-30T05:07:38.436Z,43.67
2022-10-30T05:08:38.440Z,45.76
2022-10-30T05:09:38.421Z,45.44
2022-10-30T05:10:39.009Z,41.41
2022-10-30T05:11:38.414Z,41.89
2022-10-30T05:12:38.402Z,41.41
2022-10-30T05:13:38.399Z,47.37
2022-10-30T05:14:38.395Z,44.63
2022-10-30T05:15:38.403Z,47.37
2022-10-30T05:16:38.382Z,45.12
2022-10-30T05:17:38.370Z,44.31
2022-10-30T05:18:38.363Z,40.61
2022-10-30T05:19:38.342Z,53.82
2022-10-30T05:20:38.336Z,40.28
2022-10-30T05:21:38.330Z,41.41
2022-10-30T05:22:38.328Z,41.89
2022-10-30T05:23:38.327Z,37.71
2022-10-30T05:24:38.296Z,38.35
2022-10-30T05:25:39.315Z,39.80
2022-10-30T05:26:38.287Z,40.28
2022-10-30T05:27:38.281Z,41.09
2022-10-30T05:28:38.289Z,41.09
2022-10-30T05:29:38.267Z,50.27
2022-10-30T05:30:38.273Z,42.54
2022-10-30T05:31:38.249Z,43.02
2022-10-30T05:32:38.258Z,45.44
2022-10-30T05:33:38.233Z,48.02
2022-10-30T05:34:38.245Z,44.47
2022-10-30T05:35:38.228Z,42.86
2022-10-30T05:36:38.205Z,42.54
2022-10-30T05:37:38.207Z,47.37
2022-10-30T05:38:38.189Z,41.41
2022-10-30T05:39:38.193Z,46.08
2022-10-30T05:40:38.176Z,47.53
2022-10-30T05:41:38.177Z,42.06
2022-10-30T05:42:38.163Z,45.76
2022-10-30T05:43:38.145Z,44.79
2022-10-30T05:44:59.281Z,43.18
2022-10-30T05:45:40.155Z,48.66
2022-10-30T05:46:38.179Z,44.96
2022-10-30T05:47:38.119Z,41.73
2022-10-30T05:48:38.111Z,48.50
2022-10-30T05:49:38.103Z,39.96
2022-10-30T05:50:38.104Z,40.93
2022-10-30T05:51:40.475Z,39.32
2022-10-30T05:52:38.079Z,38.99
2022-10-30T05:53:38.081Z,40.77
2022-10-30T05:54:38.062Z,51.40
2022-10-30T05:55:38.059Z,47.05
2022-10-30T05:56:38.046Z,48.18
2022-10-30T05:57:38.039Z,42.06
2022-10-30T05:58:38.032Z,44.15
2022-10-30T05:59:38.030Z,43.51
2022-10-30T06:00:38.026Z,44.96
2022-10-30T06:01:38.189Z,45.92
2022-10-30T06:02:38.069Z,41.57
2022-10-30T06:03:38.000Z,46.08
2022-10-30T06:04:37.982Z,51.88
2022-10-30T06:05:37.989Z,44.47
2022-10-30T06:06:37.971Z,45.92
2022-10-30T06:07:37.963Z,45.92
2022-10-30T06:08:37.953Z,45.28
2022-10-30T06:09:37.958Z,44.96
2022-10-30T06:10:37.943Z,41.57
2022-10-30T06:11:37.931Z,42.38
2022-10-30T06:12:37.928Z,49.31
2022-10-30T06:13:37.917Z,50.27
2022-10-30T06:14:37.904Z,41.57
2022-10-30T06:15:37.919Z,41.57
2022-10-30T06:16:37.892Z,47.37
2022-10-30T06:17:37.888Z,45.44
2022-10-30T06:18:37.881Z,46.57
2022-10-30T06:19:37.871Z,46.41
2022-10-30T06:20:37.876Z,44.31
2022-10-30T06:21:37.861Z,42.86
2022-10-30T06:22:37.840Z,41.41
2022-10-30T06:23:37.845Z,39.96
2022-10-30T06:24:37.831Z,44.63
2022-10-30T06:25:40.973Z,46.08
2022-10-30T06:26:38.832Z,46.73
2022-10-30T06:27:37.818Z,51.88
2022-10-30T06:28:37.798Z,51.40
2022-10-30T06:29:37.802Z,52.85
2022-10-30T06:30:37.777Z,44.15
2022-10-30T06:31:37.791Z,47.53
2022-10-30T06:32:37.759Z,41.73
2022-10-30T06:33:37.753Z,53.66
2022-10-30T06:34:37.754Z,50.43
2022-10-30T06:35:37.736Z,55.91
2022-10-30T06:36:37.772Z,43.34
2022-10-30T06:37:37.720Z,40.77
2022-10-30T06:38:37.737Z,41.57
2022-10-30T06:39:37.713Z,39.64
2022-10-30T06:40:37.690Z,50.76
2022-10-30T06:41:38.696Z,46.73
2022-10-30T06:42:37.684Z,44.63
2022-10-30T06:43:37.690Z,47.70
2022-10-30T06:44:37.664Z,51.56
2022-10-30T06:45:37.663Z,44.96
2022-10-30T06:46:37.675Z,54.79
2022-10-30T06:47:37.648Z,56.07
2022-10-30T06:48:37.633Z,51.72
2022-10-30T06:49:37.652Z,45.92
2022-10-30T06:50:39.532Z,48.34
2022-10-30T06:51:37.626Z,44.79
2022-10-30T06:52:37.618Z,42.86
2022-10-30T06:53:37.618Z,46.08
2022-10-30T06:54:37.594Z,48.50
2022-10-30T06:55:37.584Z,45.44
2022-10-30T06:56:37.583Z,46.73
2022-10-30T06:57:37.567Z,52.05
2022-10-30T06:58:37.560Z,53.66
2022-10-30T06:59:37.553Z,52.37
2022-10-30T07:00:37.612Z,50.60
2022-10-30T07:01:37.602Z,47.21
2022-10-30T07:02:37.532Z,47.21
2022-10-30T07:03:37.521Z,45.60
2022-10-30T07:04:37.499Z,50.76
2022-10-30T07:05:37.506Z,47.86
2022-10-30T07:06:37.498Z,45.92
2022-10-30T07:07:37.489Z,46.08
2022-10-30T07:08:37.468Z,45.60
2022-10-30T07:09:37.463Z,45.60
2022-10-30T07:10:40.044Z,49.79
2022-10-30T07:11:37.446Z,41.41
2022-10-30T07:12:37.463Z,40.93
2022-10-30T07:13:37.442Z,49.15
2022-10-30T07:14:37.424Z,49.47
2022-10-30T07:15:37.469Z,51.24
2022-10-30T07:16:37.407Z,50.76
2022-10-30T07:17:38.001Z,42.06
2022-10-30T07:18:37.409Z,46.57
2022-10-30T07:19:37.382Z,53.17
2022-10-30T07:20:37.994Z,49.31
2022-10-30T07:21:37.373Z,45.60
2022-10-30T07:22:37.359Z,48.34
2022-10-30T07:23:37.348Z,52.05
2022-10-30T07:24:37.346Z,58.33
2022-10-30T07:25:37.338Z,47.70
2022-10-30T07:26:37.328Z,53.33
2022-10-30T07:27:37.331Z,52.69
2022-10-30T07:28:37.310Z,52.53
2022-10-30T07:29:37.311Z,44.15
2022-10-30T07:30:37.291Z,53.50
2022-10-30T07:31:42.285Z,51.88
2022-10-30T07:32:39.277Z,47.53
2022-10-30T07:33:37.285Z,50.27
2022-10-30T07:34:37.272Z,48.98
2022-10-30T07:35:37.259Z,44.31
2022-10-30T07:36:37.256Z,46.57
2022-10-30T07:37:37.238Z,46.73
2022-10-30T07:38:37.243Z,50.92
2022-10-30T07:39:37.226Z,55.27
2022-10-30T07:40:37.232Z,56.40
2022-10-30T07:41:37.216Z,45.12
2022-10-30T07:42:37.198Z,56.40
2022-10-30T07:43:37.200Z,49.31
2022-10-30T07:44:37.183Z,51.88
2022-10-30T07:45:37.180Z,59.14
2022-10-30T07:46:37.167Z,54.46
2022-10-30T07:47:37.151Z,54.79
2022-10-30T07:48:37.134Z,53.82
2022-10-30T07:49:38.167Z,55.43
2022-10-30T07:50:37.140Z,56.56
2022-10-30T07:51:37.125Z,54.95
2022-10-30T07:52:37.137Z,52.53
2022-10-30T07:53:37.108Z,51.08
2022-10-30T07:54:37.115Z,57.52
2022-10-30T07:55:37.113Z,55.43
2022-10-30T07:56:37.096Z,50.60
2022-10-30T07:57:37.079Z,52.69
2022-10-30T07:58:41.242Z,50.11
2022-10-30T07:59:38.115Z,50.92
2022-10-30T08:00:37.060Z,53.82
2022-10-30T08:01:37.190Z,49.15
2022-10-30T08:02:37.208Z,59.62
2022-10-30T08:03:37.031Z,57.04
2022-10-30T08:04:37.045Z,51.72
2022-10-30T08:05:37.030Z,48.66
2022-10-30T08:06:37.011Z,51.56
2022-10-30T08:07:36.997Z,53.17
2022-10-30T08:08:41.963Z,51.24
2022-10-30T08:09:38.987Z,51.88
2022-10-30T08:10:36.983Z,46.41
2022-10-30T08:11:36.961Z,46.41
2022-10-30T08:12:36.964Z,49.63
2022-10-30T08:13:36.962Z,53.50
2022-10-30T08:14:36.948Z,50.76
2022-10-30T08:15:36.932Z,50.76
2022-10-30T08:16:36.922Z,52.21
2022-10-30T08:17:37.919Z,55.43
2022-10-30T08:18:36.954Z,53.01
2022-10-30T08:19:36.917Z,53.01
2022-10-30T08:20:37.020Z,60.42
2022-10-30T08:21:36.896Z,56.24
2022-10-30T08:22:36.886Z,54.95
2022-10-30T08:23:36.879Z,49.47
2022-10-30T08:24:36.861Z,51.72
2022-10-30T08:25:36.854Z,53.98
2022-10-30T08:26:36.848Z,57.85
2022-10-30T08:27:37.555Z,57.85
2022-10-30T08:28:36.825Z,58.01
2022-10-30T08:29:36.819Z,51.72
2022-10-30T08:30:36.816Z,56.72
2022-10-30T08:31:36.809Z,57.36
2022-10-30T08:32:36.819Z,56.72
2022-10-30T08:33:36.787Z,56.88
2022-10-30T08:34:36.783Z,56.56
2022-10-30T08:36:36.766Z,59.14
2022-10-30T08:37:36.758Z,57.52
2022-10-30T08:38:36.746Z,49.47
2022-10-30T08:39:36.745Z,50.76
2022-10-30T08:40:36.738Z,58.65
2022-10-30T08:41:36.728Z,54.95
2022-10-30T08:42:36.723Z,56.56
2022-10-30T08:43:36.710Z,53.66
2022-10-30T08:44:36.741Z,54.14
2022-10-30T08:45:36.689Z,58.97
2022-10-30T08:46:36.697Z,54.30
2022-10-30T08:47:36.672Z,53.17
2022-10-30T08:48:36.671Z,52.05
2022-10-30T08:49:36.664Z,54.79
2022-10-30T08:50:36.648Z,55.43
2022-10-30T08:51:36.646Z,56.72
2022-10-30T08:52:37.566Z,58.49
2022-10-30T08:53:36.614Z,58.01
2022-10-30T08:54:37.622Z,57.52
2022-10-30T08:55:36.619Z,58.17
2022-10-30T08:56:36.609Z,56.56
2022-10-30T08:57:36.604Z,60.26
2022-10-30T08:58:37.171Z,57.52
2022-10-30T08:59:36.582Z,57.04
2022-10-30T09:00:36.593Z,60.10
2022-10-30T09:01:36.765Z,56.40
2022-10-30T09:02:37.274Z,57.85
2022-10-30T09:03:36.541Z,58.65
2022-10-30T09:04:36.568Z,54.46
2022-10-30T09:05:36.526Z,49.15
2022-10-30T09:06:36.525Z,57.69
2022-10-30T09:07:36.520Z,57.52
2022-10-30T09:08:36.512Z,55.59
2022-10-30T09:09:36.499Z,58.01
2022-10-30T09:10:36.493Z,57.04
2022-10-30T09:11:36.480Z,58.81
2022-10-30T09:12:36.474Z,57.69
2022-10-30T09:13:36.470Z,55.91
2022-10-30T09:14:36.459Z,58.17
2022-10-30T09:15:36.460Z,55.27
2022-10-30T09:16:36.435Z,55.59
2022-10-30T09:17:36.472Z,54.30
2022-10-30T09:18:36.435Z,57.20
2022-10-30T09:19:36.487Z,59.30
2022-10-30T09:20:36.425Z,61.23
2022-10-30T09:21:36.400Z,55.11
2022-10-30T09:22:37.156Z,54.30
2022-10-30T09:23:36.405Z,58.33
2022-10-30T09:24:36.384Z,58.01
2022-10-30T09:25:36.383Z,59.14
2022-10-30T09:26:36.351Z,53.17
2022-10-30T09:27:36.350Z,58.65
2022-10-30T09:28:36.366Z,55.75
2022-10-30T09:29:36.344Z,55.43
2022-10-30T09:30:36.376Z,56.40
2022-10-30T09:31:36.328Z,54.14
2022-10-30T09:32:36.307Z,51.24
2022-10-30T09:33:36.313Z,57.36
2022-10-30T09:34:36.316Z,58.01
2022-10-30T09:35:36.302Z,57.20
2022-10-30T09:36:36.285Z,57.36
2022-10-30T09:37:36.280Z,55.11
2022-10-30T09:38:36.272Z,56.56
2022-10-30T09:39:36.277Z,59.46
2022-10-30T09:40:36.263Z,58.01
2022-10-30T09:41:36.232Z,52.05
2022-10-30T09:42:36.249Z,59.46
2022-10-30T09:43:36.222Z,56.88
2022-10-30T09:44:36.214Z,57.69
2022-10-30T09:45:36.227Z,57.04
2022-10-30T09:46:36.206Z,56.07
2022-10-30T09:47:36.200Z,57.20
2022-10-30T09:48:36.186Z,58.49
2022-10-30T09:49:36.200Z,59.14
2022-10-30T09:50:38.938Z,56.07
2022-10-30T09:51:36.215Z,58.33
2022-10-30T09:52:36.151Z,58.33
2022-10-30T09:53:36.181Z,57.52
2022-10-30T09:54:36.141Z,57.20
2022-10-30T09:55:37.046Z,53.50
2022-10-30T09:56:36.120Z,59.62
2022-10-30T09:57:36.106Z,56.88
2022-10-30T09:58:36.123Z,60.59
2022-10-30T09:59:36.096Z,54.79
2022-10-30T10:00:36.079Z,57.85
2022-10-30T10:01:36.239Z,52.37
2022-10-30T10:02:36.171Z,56.72
2022-10-30T10:03:36.066Z,59.62
2022-10-30T10:04:36.048Z,59.94
2022-10-30T10:05:36.076Z,53.01
2022-10-30T10:06:36.038Z,55.27
2022-10-30T10:07:36.046Z,57.52
2022-10-30T10:08:36.024Z,55.91
2022-10-30T10:09:36.035Z,56.56
2022-10-30T10:10:36.001Z,55.27
2022-10-30T10:11:35.997Z,59.78
2022-10-30T10:12:35.992Z,55.43
2022-10-30T10:13:36.026Z,55.59
2022-10-30T10:14:35.975Z,55.43
2022-10-30T10:15:35.978Z,58.17
2022-10-30T10:16:35.968Z,53.66
2022-10-30T10:17:35.945Z,51.72
2022-10-30T10:18:35.948Z,59.62
2022-10-30T10:19:35.937Z,53.82
2022-10-30T10:20:35.970Z,54.46
2022-10-30T10:21:35.923Z,59.46
2022-10-30T10:22:35.942Z,52.69
2022-10-30T10:23:35.907Z,53.50
2022-10-30T10:24:35.898Z,55.75
2022-10-30T10:25:36.686Z,59.62
2022-10-30T10:26:36.589Z,58.81
2022-10-30T10:27:35.881Z,57.52
2022-10-30T10:28:36.863Z,56.72
2022-10-30T10:29:35.885Z,58.97
2022-10-30T10:30:35.866Z,58.97
2022-10-30T10:31:35.883Z,57.69
2022-10-30T10:32:35.836Z,56.88
2022-10-30T10:33:35.832Z,57.52
2022-10-30T10:34:35.819Z,60.75
2022-10-30T10:35:35.806Z,59.94
2022-10-30T10:36:35.803Z,60.42
2022-10-30T10:37:35.799Z,59.46
2022-10-30T10:38:35.789Z,56.24
2022-10-30T10:39:35.778Z,57.36
2022-10-30T10:40:35.777Z,57.36
2022-10-30T10:41:35.763Z,56.24
2022-10-30T10:42:35.741Z,56.40
2022-10-30T10:43:35.798Z,53.82
2022-10-30T10:44:35.744Z,52.53
2022-10-30T10:45:35.730Z,59.14
2022-10-30T10:46:35.731Z,56.07
2022-10-30T10:47:35.698Z,54.79
2022-10-30T10:48:35.707Z,59.62
2022-10-30T10:49:39.057Z,58.97
2022-10-30T10:50:36.690Z,52.85
2022-10-30T10:51:35.694Z,57.85
2022-10-30T10:52:35.663Z,56.07
2022-10-30T10:53:35.664Z,57.85
2022-10-30T10:54:35.657Z,58.97
2022-10-30T10:55:36.673Z,59.78
2022-10-30T10:56:35.646Z,58.17
2022-10-30T10:57:35.634Z,56.88
2022-10-30T10:58:35.648Z,55.43
2022-10-30T10:59:35.612Z,49.63
2022-10-30T11:00:35.851Z,51.72
2022-10-30T11:01:35.746Z,58.17
2022-10-30T11:02:35.741Z,51.40
2022-10-30T11:03:35.602Z,60.26
2022-10-30T11:04:37.179Z,57.85
2022-10-30T11:05:35.594Z,55.59
2022-10-30T11:06:35.562Z,61.23
2022-10-30T11:07:35.548Z,60.75
2022-10-30T11:08:35.564Z,55.11
2022-10-30T11:09:35.546Z,59.46
2022-10-30T11:10:35.533Z,56.24
2022-10-30T11:11:35.516Z,59.14
2022-10-30T11:12:36.525Z,59.46
2022-10-30T11:13:35.520Z,58.65
2022-10-30T11:14:35.542Z,50.76
2022-10-30T11:15:35.490Z,53.50
2022-10-30T11:16:35.484Z,57.04
2022-10-30T11:17:35.476Z,54.14
2022-10-30T11:18:35.474Z,57.69
2022-10-30T11:19:35.453Z,60.75
2022-10-30T11:20:35.512Z,61.87
2022-10-30T11:21:35.448Z,55.43
2022-10-30T11:22:35.429Z,57.69
2022-10-30T11:23:35.430Z,60.59
2022-10-30T11:24:35.416Z,56.56
2022-10-30T11:25:35.415Z,54.95
2022-10-30T11:26:35.411Z,54.95
2022-10-30T11:27:35.425Z,57.36
2022-10-30T11:28:35.369Z,52.85
2022-10-30T11:29:36.370Z,60.59
2022-10-30T11:30:35.372Z,58.97
2022-10-30T11:31:35.369Z,58.97
2022-10-30T11:32:35.424Z,59.62
2022-10-30T11:33:35.351Z,58.01
2022-10-30T11:34:35.345Z,54.79
2022-10-30T11:35:35.321Z,54.30
2022-10-30T11:36:35.322Z,55.91
2022-10-30T11:37:35.310Z,57.52
2022-10-30T11:38:35.322Z,56.72
2022-10-30T11:39:35.304Z,54.14
2022-10-30T11:40:35.284Z,56.88
2022-10-30T11:41:35.298Z,56.56
2022-10-30T11:42:35.268Z,58.65
2022-10-30T11:43:35.300Z,59.62
2022-10-30T11:44:35.258Z,53.50
2022-10-30T11:45:35.267Z,55.59
2022-10-30T11:46:35.235Z,55.11
2022-10-30T11:48:36.245Z,59.14
2022-10-30T11:49:35.213Z,58.65
2022-10-30T11:50:35.207Z,57.69
2022-10-30T11:51:35.744Z,59.62
2022-10-30T11:52:35.205Z,58.17
2022-10-30T11:53:35.196Z,60.26
2022-10-30T11:54:35.189Z,53.33
2022-10-30T11:55:35.168Z,58.81
2022-10-30T11:56:35.169Z,59.78
2022-10-30T11:57:35.148Z,57.69
2022-10-30T11:58:35.148Z,56.40
2022-10-30T11:59:35.133Z,56.40
2022-10-30T12:00:35.133Z,58.81
2022-10-30T12:01:35.145Z,58.01
2022-10-30T12:02:35.179Z,60.91
2022-10-30T12:03:35.101Z,63.16
2022-10-30T12:04:35.098Z,58.65
2022-10-30T12:05:35.088Z,57.20
2022-10-30T12:06:35.068Z,60.75
2022-10-30T12:07:35.067Z,58.01
2022-10-30T12:08:35.049Z,57.04
2022-10-30T12:09:35.045Z,59.14
2022-10-30T12:10:35.052Z,57.52
2022-10-30T12:11:35.037Z,56.56
2022-10-30T12:12:35.016Z,54.95
2022-10-30T12:13:35.020Z,55.43
2022-10-30T12:14:35.002Z,58.49
2022-10-30T12:15:35.047Z,60.26
2022-10-30T12:16:34.987Z,55.91
2022-10-30T12:17:34.983Z,58.17
2022-10-30T12:18:34.968Z,59.78
2022-10-30T12:19:34.965Z,57.04
2022-10-30T12:20:34.958Z,56.88
2022-10-30T12:21:34.948Z,59.14
2022-10-30T12:22:34.946Z,56.24
2022-10-30T12:23:35.248Z,57.20
2022-10-30T12:24:34.930Z,57.04
2022-10-30T12:25:34.909Z,57.04
2022-10-30T12:26:34.907Z,55.27
2022-10-30T12:27:34.900Z,58.17
2022-10-30T12:28:34.882Z,58.49
2022-10-30T12:30:02.588Z,58.49
2022-10-30T12:30:36.881Z,58.49
2022-10-30T12:31:34.876Z,60.59
2022-10-30T12:32:38.572Z,60.42
2022-10-30T12:33:35.904Z,59.46
2022-10-30T12:34:34.835Z,55.91
2022-10-30T12:35:34.813Z,57.36
2022-10-30T12:36:35.824Z,60.26
2022-10-30T12:37:34.810Z,57.20
2022-10-30T12:38:34.795Z,59.78
2022-10-30T12:39:34.788Z,60.91
2022-10-30T12:40:34.791Z,58.97
2022-10-30T12:41:34.773Z,55.75
2022-10-30T12:42:34.770Z,52.21
2022-10-30T12:43:34.777Z,57.52
2022-10-30T12:44:34.746Z,59.46
2022-10-30T12:45:34.763Z,59.14
2022-10-30T12:46:34.738Z,59.78
2022-10-30T12:47:34.732Z,59.14
2022-10-30T12:48:34.717Z,58.65
2022-10-30T12:49:34.710Z,59.62
2022-10-30T12:50:34.701Z,54.46
2022-10-30T12:51:34.686Z,56.88
2022-10-30T12:52:34.688Z,57.20
2022-10-30T12:53:34.686Z,58.49
2022-10-30T12:54:34.664Z,55.11
2022-10-30T12:55:34.658Z,56.72
2022-10-30T12:56:34.645Z,58.33
2022-10-30T12:57:34.638Z,58.97